Time,TemperatureF,DewpointF,PressureIn,WindDirection,WindDirectionDegrees,WindSpeedMPH,WindSpeedGustMPH,Humidity,HourlyPrecipIn,Conditions,Clouds,dailyrainin,SolarRadiationWatts/m^2,SoftwareType,DateUTC
2013-06-26 00:02:00,71.0,69.0,-100.00,NNW,334,0.0,0.0,95,0.00,,,0.48,0.000000,,2013-06-26 04:02:00,
2013-06-26 00:33:00,70.0,68.0,-100.00,WSW,242,0.0,0.0,95,0.00,,,0.48,0.000000,,2013-06-26 04:33:00,
2013-06-26 00:43:00,70.0,68.0,-100.00,WSW,242,0.0,0.0,95,0.00,,,0.48,0.000000,,2013-06-26 04:43:00,
2013-06-26 00:53:00,70.0,68.0,-100.00,WSW,242,0.0,0.0,95,0.00,,,0.48,0.000000,,2013-06-26 04:53:00,
2013-06-26 01:02:00,70.0,68.0,-100.00,WSW,242,0.0,0.0,95,0.00,,,0.48,0.000000,,2013-06-26 05:02:00,
2013-06-26 01:34:00,70.0,69.0,-100.00,WSW,243,0.0,0.0,96,0.00,,,0.48,0.000000,,2013-06-26 05:34:00,
2013-06-26 01:43:00,70.0,69.0,-100.00,WSW,243,0.0,0.0,96,0.00,,,0.48,0.000000,,2013-06-26 05:43:00,
2013-06-26 01:52:00,70.0,69.0,-100.00,WSW,243,0.0,0.0,96,0.00,,,0.48,0.000000,,2013-06-26 05:52:00,
2013-06-26 02:02:00,70.0,69.0,-100.00,WSW,243,0.0,0.0,96,0.00,,,0.48,0.000000,,2013-06-26 06:02:00,
2013-06-26 02:34:00,69.0,68.0,-100.00,NNW,348,0.0,0.0,96,0.00,,,0.48,0.000000,,2013-06-26 06:34:00,
2013-06-26 02:44:00,69.0,68.0,-100.00,NNW,348,0.0,0.0,96,0.00,,,0.48,0.000000,,2013-06-26 06:44:00,
2013-06-26 02:53:00,69.0,68.0,-100.00,NNW,348,0.0,0.0,96,0.00,,,0.48,0.000000,,2013-06-26 06:53:00,
2013-06-26 03:01:00,69.0,68.0,-100.00,NNW,348,0.0,0.0,96,0.00,,,0.48,0.000000,,2013-06-26 07:01:00,
2013-06-26 03:33:00,68.0,67.0,-100.00,North,6,0.0,0.0,96,0.00,,,0.48,0.000000,,2013-06-26 07:33:00,
2013-06-26 03:43:00,68.0,67.0,-100.00,North,6,0.0,0.0,96,0.00,,,0.48,0.000000,,2013-06-26 07:43:00,
2013-06-26 03:53:00,68.0,67.0,-100.00,North,6,0.0,0.0,96,0.00,,,0.48,0.000000,,2013-06-26 07:53:00,
2013-06-26 04:01:00,68.0,67.0,-100.00,North,6,0.0,0.0,96,0.00,,,0.48,0.000000,,2013-06-26 08:01:00,
2013-06-26 04:34:00,68.0,67.0,-100.00,SSE,155,0.0,0.0,96,0.00,,,0.48,0.000000,,2013-06-26 08:34:00,
2013-06-26 04:43:00,68.0,67.0,-100.00,SSE,155,0.0,0.0,96,0.00,,,0.48,0.000000,,2013-06-26 08:43:00,
2013-06-26 04:53:00,68.0,67.0,-100.00,SSE,155,0.0,0.0,96,0.00,,,0.48,0.000000,,2013-06-26 08:53:00,
2013-06-26 05:01:00,68.0,67.0,-100.00,SSE,155,0.0,0.0,96,0.00,,,0.48,0.000000,,2013-06-26 09:01:00,
2013-06-26 05:33:00,67.0,66.0,-100.00,SSW,193,0.0,0.0,96,0.00,,,0.48,0.000000,,2013-06-26 09:33:00,
2013-06-26 05:43:00,67.0,66.0,-100.00,SSW,193,0.0,0.0,96,0.00,,,0.48,0.000000,,2013-06-26 09:43:00,
2013-06-26 05:53:00,67.0,66.0,-100.00,SSW,193,0.0,0.0,96,0.00,,,0.48,0.000000,,2013-06-26 09:53:00,
2013-06-26 06:01:00,67.0,66.0,-100.00,SSW,193,0.0,0.0,96,0.00,,,0.48,0.000000,,2013-06-26 10:01:00,
2013-06-26 06:34:00,67.0,66.0,-100.00,NW,311,0.0,0.0,96,0.00,,,0.48,0.000000,,2013-06-26 10:34:00,
2013-06-26 06:43:00,67.0,66.0,-100.00,NW,311,0.0,0.0,96,0.00,,,0.48,0.000000,,2013-06-26 10:43:00,
2013-06-26 06:53:00,67.0,66.0,-100.00,NW,311,0.0,0.0,96,0.00,,,0.48,0.000000,,2013-06-26 10:53:00,
2013-06-26 07:02:00,67.0,66.0,-100.00,NW,311,0.0,0.0,96,0.00,,,0.48,0.000000,,2013-06-26 11:02:00,
2013-06-26 07:33:00,67.0,66.0,-100.00,NNW,334,0.0,0.0,96,0.00,,,0.48,7.000000,,2013-06-26 11:33:00,
2013-06-26 07:44:00,67.0,66.0,-100.00,NNW,334,0.0,0.0,96,0.00,,,0.48,7.000000,,2013-06-26 11:44:00,
2013-06-26 07:52:00,67.0,66.0,-100.00,NNW,334,0.0,0.0,96,0.00,,,0.48,7.000000,,2013-06-26 11:52:00,
2013-06-26 08:02:00,67.0,66.0,-100.00,NNW,334,0.0,0.0,96,0.00,,,0.48,7.000000,,2013-06-26 12:02:00,
2013-06-26 08:34:00,74.0,73.0,-100.00,NNW,339,0.0,0.0,96,0.00,,,0.48,117.000000,,2013-06-26 12:34:00,
2013-06-26 08:43:00,74.0,73.0,-100.00,NNW,339,0.0,0.0,96,0.00,,,0.48,117.000000,,2013-06-26 12:43:00,
2013-06-26 08:52:00,74.0,73.0,-100.00,NNW,339,0.0,0.0,96,0.00,,,0.48,117.000000,,2013-06-26 12:52:00,
2013-06-26 09:02:00,74.0,73.0,-100.00,NNW,339,0.0,0.0,96,0.00,,,0.48,117.000000,,2013-06-26 13:02:00,
2013-06-26 09:34:00,80.0,76.0,-100.00,WSW,239,2.0,6.0,89,0.00,,,0.48,301.000000,,2013-06-26 13:34:00,
2013-06-26 09:43:00,80.0,76.0,-100.00,WSW,239,2.0,6.0,89,0.00,,,0.48,301.000000,,2013-06-26 13:43:00,
2013-06-26 09:53:00,80.0,76.0,-100.00,WSW,239,2.0,6.0,89,0.00,,,0.48,301.000000,,2013-06-26 13:53:00,
2013-06-26 10:02:00,80.0,76.0,-100.00,WSW,239,2.0,6.0,89,0.00,,,0.48,301.000000,,2013-06-26 14:02:00,
2013-06-26 10:34:00,83.0,75.0,-100.00,West,278,4.0,8.0,78,0.00,,,0.48,514.000000,,2013-06-26 14:34:00,
2013-06-26 10:42:00,83.0,75.0,-100.00,West,278,4.0,8.0,78,0.00,,,0.48,514.000000,,2013-06-26 14:42:00,
2013-06-26 10:53:00,83.0,75.0,-100.00,West,278,4.0,8.0,78,0.00,,,0.48,514.000000,,2013-06-26 14:53:00,
2013-06-26 11:02:00,83.0,75.0,-100.00,West,278,4.0,8.0,78,0.00,,,0.48,514.000000,,2013-06-26 15:02:00,
2013-06-26 11:34:00,86.0,76.0,-100.00,WNW,286,4.0,8.0,72,0.00,,,0.48,695.000000,,2013-06-26 15:34:00,
2013-06-26 11:44:00,86.0,76.0,-100.00,WNW,286,4.0,8.0,72,0.00,,,0.48,695.000000,,2013-06-26 15:44:00,
2013-06-26 11:53:00,86.0,76.0,-100.00,WNW,286,4.0,8.0,72,0.00,,,0.48,695.000000,,2013-06-26 15:53:00,
2013-06-26 12:01:00,86.0,76.0,-100.00,WNW,286,4.0,8.0,72,0.00,,,0.48,695.000000,,2013-06-26 16:01:00,
2013-06-26 12:34:00,89.0,76.0,-100.00,West,273,3.0,10.0,65,0.00,,,0.48,840.000000,,2013-06-26 16:34:00,
2013-06-26 12:43:00,89.0,76.0,-100.00,West,273,3.0,10.0,65,0.00,,,0.48,840.000000,,2013-06-26 16:43:00,
2013-06-26 12:52:00,89.0,76.0,-100.00,West,273,3.0,10.0,65,0.00,,,0.48,840.000000,,2013-06-26 16:52:00,
2013-06-26 13:02:00,89.0,76.0,-100.00,West,273,3.0,10.0,65,0.00,,,0.48,840.000000,,2013-06-26 17:02:00,
2013-06-26 13:33:00,89.0,73.0,-100.00,WNW,287,4.0,9.0,60,0.00,,,0.48,980.000000,,2013-06-26 17:33:00,
2013-06-26 13:43:00,89.0,73.0,-100.00,WNW,287,4.0,9.0,60,0.00,,,0.48,980.000000,,2013-06-26 17:43:00,
2013-06-26 13:52:00,89.0,73.0,-100.00,WNW,287,4.0,9.0,60,0.00,,,0.48,980.000000,,2013-06-26 17:52:00,
2013-06-26 14:01:00,89.0,73.0,-100.00,WNW,287,4.0,9.0,60,0.00,,,0.48,980.000000,,2013-06-26 18:01:00,
2013-06-26 14:34:00,91.0,73.0,-100.00,West,272,3.0,9.0,56,0.00,,,0.48,981.000000,,2013-06-26 18:34:00,
2013-06-26 14:43:00,91.0,73.0,-100.00,West,272,3.0,9.0,56,0.00,,,0.48,981.000000,,2013-06-26 18:43:00,
2013-06-26 14:52:00,91.0,73.0,-100.00,West,272,3.0,9.0,56,0.00,,,0.48,981.000000,,2013-06-26 18:52:00,
2013-06-26 15:02:00,91.0,73.0,-100.00,West,272,3.0,9.0,56,0.00,,,0.48,981.000000,,2013-06-26 19:02:00,
2013-06-26 15:33:00,91.0,70.0,-100.00,WNW,293,3.0,6.0,51,0.00,,,0.48,872.000000,,2013-06-26 19:33:00,
2013-06-26 15:43:00,91.0,70.0,-100.00,WNW,293,3.0,6.0,51,0.00,,,0.48,872.000000,,2013-06-26 19:43:00,
2013-06-26 15:52:00,91.0,70.0,-100.00,WNW,293,3.0,6.0,51,0.00,,,0.48,872.000000,,2013-06-26 19:52:00,
2013-06-26 16:01:00,91.0,70.0,-100.00,WNW,293,3.0,6.0,51,0.00,,,0.48,872.000000,,2013-06-26 20:01:00,
2013-06-26 16:34:00,91.0,71.0,-100.00,WNW,284,4.0,6.0,52,0.00,,,0.48,732.000000,,2013-06-26 20:34:00,
2013-06-26 16:43:00,91.0,71.0,-100.00,WNW,284,4.0,6.0,52,0.00,,,0.48,732.000000,,2013-06-26 20:43:00,
2013-06-26 16:52:00,91.0,71.0,-100.00,WNW,284,4.0,6.0,52,0.00,,,0.48,732.000000,,2013-06-26 20:52:00,
2013-06-26 17:02:00,91.0,71.0,-100.00,WNW,284,4.0,6.0,52,0.00,,,0.48,732.000000,,2013-06-26 21:02:00,
2013-06-26 17:33:00,91.0,74.0,-100.00,SE,143,3.0,7.0,58,0.00,,,0.48,566.000000,,2013-06-26 21:33:00,
2013-06-26 17:43:00,91.0,74.0,-100.00,SE,143,3.0,7.0,58,0.00,,,0.48,566.000000,,2013-06-26 21:43:00,
2013-06-26 17:52:00,91.0,74.0,-100.00,SE,143,3.0,7.0,58,0.00,,,0.48,566.000000,,2013-06-26 21:52:00,
2013-06-26 18:01:00,91.0,74.0,-100.00,SE,143,3.0,7.0,58,0.00,,,0.48,566.000000,,2013-06-26 22:01:00,
2013-06-26 18:34:00,84.0,72.0,-100.00,East,94,5.0,11.0,67,0.00,,,0.48,377.000000,,2013-06-26 22:34:00,
2013-06-26 18:43:00,84.0,72.0,-100.00,East,94,5.0,11.0,67,0.00,,,0.48,377.000000,,2013-06-26 22:43:00,
2013-06-26 18:52:00,84.0,72.0,-100.00,East,94,5.0,11.0,67,0.00,,,0.48,377.000000,,2013-06-26 22:52:00,
2013-06-26 19:02:00,84.0,72.0,-100.00,East,94,5.0,11.0,67,0.00,,,0.48,377.000000,,2013-06-26 23:02:00,
2013-06-26 19:34:00,82.0,73.0,-100.00,East,98,6.0,12.0,74,0.00,,,0.48,250.000000,,2013-06-26 23:34:00,
2013-06-26 19:43:00,82.0,73.0,-100.00,East,98,6.0,12.0,74,0.00,,,0.48,250.000000,,2013-06-26 23:43:00,
2013-06-26 19:53:00,82.0,73.0,-100.00,East,98,6.0,12.0,74,0.00,,,0.48,250.000000,,2013-06-26 23:53:00,
2013-06-26 20:01:00,82.0,73.0,-100.00,East,98,6.0,12.0,74,0.00,,,0.48,250.000000,,2013-06-27 00:01:00,
2013-06-26 20:34:00,77.0,73.0,-100.00,SW,226,2.0,11.0,88,0.00,,,0.00,27.000000,,2013-06-27 00:34:00,
2013-06-26 20:43:00,77.0,73.0,-100.00,SW,226,2.0,11.0,88,0.00,,,0.00,27.000000,,2013-06-27 00:43:00,
2013-06-26 20:53:00,77.0,73.0,-100.00,SW,226,2.0,11.0,88,0.00,,,0.00,27.000000,,2013-06-27 00:53:00,
2013-06-26 21:01:00,77.0,73.0,-100.00,SW,226,2.0,11.0,88,0.00,,,0.00,27.000000,,2013-06-27 01:01:00,
2013-06-26 21:32:00,76.0,74.0,-100.00,East,91,1.0,6.0,94,0.11,,,0.11,10.000000,,2013-06-27 01:32:00,
2013-06-26 21:43:00,76.0,74.0,-100.00,East,91,1.0,6.0,94,0.11,,,0.11,10.000000,,2013-06-27 01:43:00,
2013-06-26 21:53:00,76.0,74.0,-100.00,East,91,1.0,6.0,94,0.11,,,0.11,10.000000,,2013-06-27 01:53:00,
2013-06-26 22:01:00,76.0,74.0,-100.00,East,91,1.0,6.0,94,0.11,,,0.11,10.000000,,2013-06-27 02:01:00,
2013-06-26 22:32:00,76.0,74.0,-100.00,SSE,166,0.0,1.0,95,0.00,,,0.11,0.000000,,2013-06-27 02:32:00,
2013-06-26 22:42:00,76.0,74.0,-100.00,SSE,166,0.0,1.0,95,0.00,,,0.11,0.000000,,2013-06-27 02:42:00,
2013-06-26 22:52:00,76.0,74.0,-100.00,SSE,166,0.0,1.0,95,0.00,,,0.11,0.000000,,2013-06-27 02:52:00,
2013-06-26 23:02:00,76.0,74.0,-100.00,SSE,166,0.0,1.0,95,0.00,,,0.11,0.000000,,2013-06-27 03:02:00,
2013-06-26 23:33:00,76.0,75.0,-100.00,SSE,157,0.0,0.0,96,0.00,,,0.11,0.000000,,2013-06-27 03:33:00,
2013-06-26 23:42:00,76.0,75.0,-100.00,SSE,157,0.0,0.0,96,0.00,,,0.11,0.000000,,2013-06-27 03:42:00,
2013-06-26 23:52:00,76.0,75.0,-100.00,SSE,157,0.0,0.0,96,0.00,,,0.11,0.000000,,2013-06-27 03:52:00,